sensor_id;sensor_type;location;lat;lon;timestamp;P1;durP1;ratioP1;P2;durP2;ratioP2
9597;SDS011;4837;50.890;4.724;2023-07-20T00:01:26;5.97;;;2.97;;
9597;SDS011;4837;50.890;4.724;2023-07-20T00:03:52;4.10;;;2.40;;
9597;SDS011;4837;50.890;4.724;2023-07-20T00:06:21;5.45;;;2.90;;
9597;SDS011;4837;50.890;4.724;2023-07-20T00:08:49;5.15;;;2.80;;
9597;SDS011;4837;50.890;4.724;2023-07-20T00:11:15;5.97;;;2.70;;
9597;SDS011;4837;50.890;4.724;2023-07-20T00:13:41;7.00;;;2.72;;
9597;SDS011;4837;50.890;4.724;2023-07-20T00:16:07;4.95;;;3.13;;
9597;SDS011;4837;50.890;4.724;2023-07-20T00:18:33;6.93;;;3.00;;
9597;SDS011;4837;50.890;4.724;2023-07-20T00:20:59;5.80;;;2.92;;
9597;SDS011;4837;50.890;4.724;2023-07-20T00:23:26;5.45;;;2.88;;
9597;SDS011;4837;50.890;4.724;2023-07-20T00:25:53;7.10;;;2.95;;
9597;SDS011;4837;50.890;4.724;2023-07-20T00:28:19;5.53;;;2.83;;
9597;SDS011;4837;50.890;4.724;2023-07-20T00:30:45;6.07;;;2.85;;
9597;SDS011;4837;50.890;4.724;2023-07-20T00:33:12;5.47;;;2.78;;
9597;SDS011;4837;50.890;4.724;2023-07-20T00:35:38;5.97;;;2.55;;
9597;SDS011;4837;50.890;4.724;2023-07-20T00:38:04;6.80;;;2.90;;
9597;SDS011;4837;50.890;4.724;2023-07-20T00:40:37;4.75;;;3.03;;
9597;SDS011;4837;50.890;4.724;2023-07-20T00:43:04;4.78;;;2.50;;
9597;SDS011;4837;50.890;4.724;2023-07-20T00:45:30;5.45;;;2.75;;
9597;SDS011;4837;50.890;4.724;2023-07-20T00:47:57;5.15;;;3.08;;
9597;SDS011;4837;50.890;4.724;2023-07-20T00:50:24;6.88;;;2.70;;
9597;SDS011;4837;50.890;4.724;2023-07-20T00:52:50;5.72;;;3.00;;
9597;SDS011;4837;50.890;4.724;2023-07-20T00:55:16;4.68;;;2.70;;
9597;SDS011;4837;50.890;4.724;2023-07-20T00:57:43;7.45;;;3.00;;
9597;SDS011;4837;50.890;4.724;2023-07-20T01:00:09;6.65;;;2.90;;
9597;SDS011;4837;50.890;4.724;2023-07-20T01:02:36;5.65;;;2.80;;
9597;SDS011;4837;50.890;4.724;2023-07-20T01:05:02;4.07;;;2.25;;
9597;SDS011;4837;50.890;4.724;2023-07-20T01:08:02;6.68;;;2.83;;
9597;SDS011;4837;50.890;4.724;2023-07-20T01:12:53;5.60;;;2.85;;
9597;SDS011;4837;50.890;4.724;2023-07-20T01:15:20;6.88;;;2.70;;
9597;SDS011;4837;50.890;4.724;2023-07-20T01:17:47;5.88;;;2.63;;
9597;SDS011;4837;50.890;4.724;2023-07-20T01:20:14;6.20;;;3.03;;
9597;SDS011;4837;50.890;4.724;2023-07-20T01:22:50;6.47;;;3.38;;
9597;SDS011;4837;50.890;4.724;2023-07-20T01:32:51;6.50;;;3.30;;
9597;SDS011;4837;50.890;4.724;2023-07-20T01:35:20;4.88;;;3.33;;
9597;SDS011;4837;50.890;4.724;2023-07-20T01:37:49;5.00;;;3.00;;
9597;SDS011;4837;50.890;4.724;2023-07-20T01:40:16;7.07;;;3.55;;
9597;SDS011;4837;50.890;4.724;2023-07-20T01:42:45;6.82;;;3.35;;
9597;SDS011;4837;50.890;4.724;2023-07-20T01:45:12;7.32;;;3.13;;
9597;SDS011;4837;50.890;4.724;2023-07-20T01:47:38;5.63;;;3.60;;
9597;SDS011;4837;50.890;4.724;2023-07-20T01:50:05;5.93;;;3.33;;
9597;SDS011;4837;50.890;4.724;2023-07-20T01:52:31;8.45;;;3.22;;
9597;SDS011;4837;50.890;4.724;2023-07-20T01:54:57;6.40;;;3.58;;
9597;SDS011;4837;50.890;4.724;2023-07-20T01:57:23;7.47;;;3.85;;
9597;SDS011;4837;50.890;4.724;2023-07-20T01:59:49;5.63;;;3.85;;
9597;SDS011;4837;50.890;4.724;2023-07-20T02:02:16;7.80;;;3.90;;
9597;SDS011;4837;50.890;4.724;2023-07-20T02:04:43;8.18;;;4.10;;
9597;SDS011;4837;50.890;4.724;2023-07-20T02:07:09;7.53;;;4.22;;
9597;SDS011;4837;50.890;4.724;2023-07-20T02:09:35;7.30;;;4.50;;
9597;SDS011;4837;50.890;4.724;2023-07-20T02:12:02;10.75;;;4.40;;
9597;SDS011;4837;50.890;4.724;2023-07-20T02:14:28;10.32;;;4.90;;
9597;SDS011;4837;50.890;4.724;2023-07-20T02:16:54;15.27;;;5.30;;
9597;SDS011;4837;50.890;4.724;2023-07-20T02:19:25;9.27;;;4.75;;
9597;SDS011;4837;50.890;4.724;2023-07-20T02:21:54;11.40;;;4.78;;
9597;SDS011;4837;50.890;4.724;2023-07-20T02:24:20;14.52;;;5.10;;
9597;SDS011;4837;50.890;4.724;2023-07-20T02:26:46;10.48;;;4.95;;
9597;SDS011;4837;50.890;4.724;2023-07-20T02:29:12;13.15;;;5.05;;
9597;SDS011;4837;50.890;4.724;2023-07-20T02:31:38;13.30;;;5.45;;
9597;SDS011;4837;50.890;4.724;2023-07-20T02:34:05;12.13;;;5.03;;
9597;SDS011;4837;50.890;4.724;2023-07-20T02:36:31;7.72;;;5.03;;
9597;SDS011;4837;50.890;4.724;2023-07-20T02:39:01;10.73;;;4.57;;
9597;SDS011;4837;50.890;4.724;2023-07-20T02:41:30;10.63;;;5.25;;
9597;SDS011;4837;50.890;4.724;2023-07-20T02:43:56;8.60;;;4.50;;
9597;SDS011;4837;50.890;4.724;2023-07-20T02:46:23;10.82;;;4.80;;
9597;SDS011;4837;50.890;4.724;2023-07-20T02:48:49;11.63;;;5.05;;
9597;SDS011;4837;50.890;4.724;2023-07-20T02:51:15;9.60;;;5.75;;
9597;SDS011;4837;50.890;4.724;2023-07-20T02:53:41;9.57;;;5.82;;
9597;SDS011;4837;50.890;4.724;2023-07-20T02:56:07;7.60;;;5.45;;
9597;SDS011;4837;50.890;4.724;2023-07-20T02:58:34;13.82;;;5.82;;
9597;SDS011;4837;50.890;4.724;2023-07-20T03:01:02;12.27;;;6.07;;
9597;SDS011;4837;50.890;4.724;2023-07-20T03:03:28;13.07;;;6.50;;
9597;SDS011;4837;50.890;4.724;2023-07-20T03:05:54;11.02;;;6.03;;
9597;SDS011;4837;50.890;4.724;2023-07-20T03:08:22;10.95;;;6.68;;
9597;SDS011;4837;50.890;4.724;2023-07-20T03:10:49;13.88;;;7.03;;
9597;SDS011;4837;50.890;4.724;2023-07-20T03:13:15;13.57;;;6.60;;
9597;SDS011;4837;50.890;4.724;2023-07-20T03:15:42;13.98;;;6.97;;
9597;SDS011;4837;50.890;4.724;2023-07-20T03:18:08;12.85;;;6.30;;
9597;SDS011;4837;50.890;4.724;2023-07-20T03:20:35;11.65;;;6.05;;
9597;SDS011;4837;50.890;4.724;2023-07-20T03:23:02;13.30;;;6.43;;
9597;SDS011;4837;50.890;4.724;2023-07-20T03:25:28;9.82;;;7.22;;
9597;SDS011;4837;50.890;4.724;2023-07-20T03:27:54;9.07;;;6.22;;
9597;SDS011;4837;50.890;4.724;2023-07-20T03:30:20;14.63;;;7.22;;
9597;SDS011;4837;50.890;4.724;2023-07-20T03:32:48;11.77;;;6.97;;
9597;SDS011;4837;50.890;4.724;2023-07-20T03:35:14;13.43;;;7.75;;
9597;SDS011;4837;50.890;4.724;2023-07-20T03:37:41;13.75;;;7.47;;
9597;SDS011;4837;50.890;4.724;2023-07-20T03:40:08;13.80;;;7.70;;
9597;SDS011;4837;50.890;4.724;2023-07-20T03:42:35;15.57;;;7.38;;
9597;SDS011;4837;50.890;4.724;2023-07-20T03:45:01;10.80;;;7.53;;
9597;SDS011;4837;50.890;4.724;2023-07-20T03:47:28;15.50;;;7.75;;
9597;SDS011;4837;50.890;4.724;2023-07-20T03:49:54;12.82;;;7.63;;
9597;SDS011;4837;50.890;4.724;2023-07-20T03:52:20;11.00;;;8.18;;
9597;SDS011;4837;50.890;4.724;2023-07-20T03:54:46;12.23;;;8.15;;
9597;SDS011;4837;50.890;4.724;2023-07-20T03:57:12;12.30;;;8.20;;
9597;SDS011;4837;50.890;4.724;2023-07-20T03:59:38;14.30;;;8.23;;
9597;SDS011;4837;50.890;4.724;2023-07-20T04:02:05;13.23;;;7.78;;
9597;SDS011;4837;50.890;4.724;2023-07-20T04:04:31;11.73;;;8.13;;
9597;SDS011;4837;50.890;4.724;2023-07-20T04:06:57;11.98;;;7.90;;
9597;SDS011;4837;50.890;4.724;2023-07-20T04:09:23;15.95;;;8.40;;
9597;SDS011;4837;50.890;4.724;2023-07-20T04:11:49;12.00;;;8.02;;
9597;SDS011;4837;50.890;4.724;2023-07-20T04:14:15;11.48;;;8.00;;
9597;SDS011;4837;50.890;4.724;2023-07-20T04:16:41;11.57;;;8.13;;
9597;SDS011;4837;50.890;4.724;2023-07-20T04:19:07;14.02;;;8.38;;
9597;SDS011;4837;50.890;4.724;2023-07-20T04:21:39;15.15;;;8.20;;
9597;SDS011;4837;50.890;4.724;2023-07-20T04:24:06;13.38;;;8.75;;
9597;SDS011;4837;50.890;4.724;2023-07-20T04:26:32;14.48;;;8.73;;
9597;SDS011;4837;50.890;4.724;2023-07-20T04:28:58;12.70;;;9.18;;
9597;SDS011;4837;50.890;4.724;2023-07-20T04:31:24;12.40;;;8.05;;
9597;SDS011;4837;50.890;4.724;2023-07-20T04:33:51;13.15;;;8.35;;
9597;SDS011;4837;50.890;4.724;2023-07-20T04:36:17;13.90;;;8.40;;
9597;SDS011;4837;50.890;4.724;2023-07-20T04:38:47;12.57;;;8.95;;
9597;SDS011;4837;50.890;4.724;2023-07-20T04:41:14;14.75;;;8.95;;
9597;SDS011;4837;50.890;4.724;2023-07-20T04:43:43;14.98;;;8.70;;
9597;SDS011;4837;50.890;4.724;2023-07-20T04:46:10;13.32;;;8.57;;
9597;SDS011;4837;50.890;4.724;2023-07-20T04:48:36;15.98;;;8.68;;
9597;SDS011;4837;50.890;4.724;2023-07-20T04:51:02;13.98;;;8.02;;
9597;SDS011;4837;50.890;4.724;2023-07-20T04:53:28;11.43;;;8.55;;
9597;SDS011;4837;50.890;4.724;2023-07-20T04:55:56;13.23;;;8.45;;
9597;SDS011;4837;50.890;4.724;2023-07-20T04:58:22;10.50;;;8.07;;
9597;SDS011;4837;50.890;4.724;2023-07-20T05:00:49;12.80;;;8.73;;
9597;SDS011;4837;50.890;4.724;2023-07-20T05:03:15;13.45;;;8.35;;
9597;SDS011;4837;50.890;4.724;2023-07-20T05:05:41;10.35;;;8.48;;
9597;SDS011;4837;50.890;4.724;2023-07-20T05:08:07;11.32;;;9.10;;
9597;SDS011;4837;50.890;4.724;2023-07-20T05:10:34;13.02;;;8.70;;
9597;SDS011;4837;50.890;4.724;2023-07-20T05:13:00;15.60;;;9.10;;
9597;SDS011;4837;50.890;4.724;2023-07-20T05:15:26;15.80;;;9.18;;
9597;SDS011;4837;50.890;4.724;2023-07-20T05:17:52;13.10;;;9.38;;
9597;SDS011;4837;50.890;4.724;2023-07-20T05:20:18;12.60;;;9.27;;
9597;SDS011;4837;50.890;4.724;2023-07-20T05:22:45;14.63;;;9.35;;
9597;SDS011;4837;50.890;4.724;2023-07-20T05:25:11;11.18;;;8.90;;
9597;SDS011;4837;50.890;4.724;2023-07-20T05:27:38;14.93;;;9.70;;
9597;SDS011;4837;50.890;4.724;2023-07-20T05:30:04;13.13;;;10.02;;
9597;SDS011;4837;50.890;4.724;2023-07-20T05:32:32;11.88;;;9.45;;
9597;SDS011;4837;50.890;4.724;2023-07-20T05:34:58;12.45;;;9.52;;
9597;SDS011;4837;50.890;4.724;2023-07-20T05:37:24;13.88;;;9.50;;
9597;SDS011;4837;50.890;4.724;2023-07-20T05:39:50;13.27;;;9.55;;
9597;SDS011;4837;50.890;4.724;2023-07-20T05:42:17;14.27;;;9.63;;
9597;SDS011;4837;50.890;4.724;2023-07-20T05:44:43;14.63;;;9.65;;
9597;SDS011;4837;50.890;4.724;2023-07-20T05:47:09;15.32;;;9.60;;
9597;SDS011;4837;50.890;4.724;2023-07-20T05:49:35;11.05;;;8.77;;
9597;SDS011;4837;50.890;4.724;2023-07-20T05:52:02;14.50;;;8.48;;
9597;SDS011;4837;50.890;4.724;2023-07-20T05:54:28;15.65;;;9.75;;
9597;SDS011;4837;50.890;4.724;2023-07-20T05:56:54;12.18;;;9.27;;
9597;SDS011;4837;50.890;4.724;2023-07-20T05:59:20;11.38;;;8.32;;
9597;SDS011;4837;50.890;4.724;2023-07-20T06:01:48;9.90;;;8.63;;
9597;SDS011;4837;50.890;4.724;2023-07-20T06:04:15;14.25;;;9.23;;
9597;SDS011;4837;50.890;4.724;2023-07-20T06:06:41;15.07;;;9.00;;
9597;SDS011;4837;50.890;4.724;2023-07-20T06:09:07;10.35;;;8.77;;
9597;SDS011;4837;50.890;4.724;2023-07-20T06:11:37;10.98;;;8.10;;
9597;SDS011;4837;50.890;4.724;2023-07-20T06:14:03;11.20;;;8.82;;
9597;SDS011;4837;50.890;4.724;2023-07-20T06:16:29;13.77;;;8.48;;
9597;SDS011;4837;50.890;4.724;2023-07-20T06:18:55;11.93;;;8.13;;
9597;SDS011;4837;50.890;4.724;2023-07-20T06:21:22;11.85;;;8.70;;
9597;SDS011;4837;50.890;4.724;2023-07-20T06:23:48;11.00;;;8.10;;
9597;SDS011;4837;50.890;4.724;2023-07-20T06:26:14;10.70;;;8.43;;
9597;SDS011;4837;50.890;4.724;2023-07-20T06:28:41;13.18;;;8.77;;
9597;SDS011;4837;50.890;4.724;2023-07-20T06:31:07;14.70;;;8.90;;
9597;SDS011;4837;50.890;4.724;2023-07-20T06:33:33;9.45;;;7.57;;
9597;SDS011;4837;50.890;4.724;2023-07-20T06:36:02;10.02;;;8.63;;
9597;SDS011;4837;50.890;4.724;2023-07-20T06:38:28;11.85;;;8.90;;
9597;SDS011;4837;50.890;4.724;2023-07-20T06:40:54;12.73;;;8.77;;
9597;SDS011;4837;50.890;4.724;2023-07-20T06:43:20;11.05;;;9.27;;
9597;SDS011;4837;50.890;4.724;2023-07-20T06:45:53;11.63;;;9.73;;
9597;SDS011;4837;50.890;4.724;2023-07-20T06:48:19;13.45;;;10.57;;
9597;SDS011;4837;50.890;4.724;2023-07-20T06:50:45;12.57;;;10.55;;
9597;SDS011;4837;50.890;4.724;2023-07-20T06:53:12;14.35;;;10.98;;
9597;SDS011;4837;50.890;4.724;2023-07-20T06:55:38;14.77;;;11.93;;
9597;SDS011;4837;50.890;4.724;2023-07-20T06:58:04;13.02;;;11.50;;
9597;SDS011;4837;50.890;4.724;2023-07-20T07:00:31;19.60;;;12.65;;
9597;SDS011;4837;50.890;4.724;2023-07-20T07:02:57;12.77;;;11.23;;
9597;SDS011;4837;50.890;4.724;2023-07-20T07:05:23;13.73;;;11.25;;
9597;SDS011;4837;50.890;4.724;2023-07-20T07:07:49;14.57;;;11.95;;
9597;SDS011;4837;50.890;4.724;2023-07-20T07:10:15;14.75;;;13.07;;
9597;SDS011;4837;50.890;4.724;2023-07-20T07:12:41;14.23;;;11.60;;
9597;SDS011;4837;50.890;4.724;2023-07-20T07:15:07;14.25;;;10.30;;
9597;SDS011;4837;50.890;4.724;2023-07-20T07:17:35;11.95;;;10.50;;
9597;SDS011;4837;50.890;4.724;2023-07-20T07:20:02;14.20;;;11.30;;
9597;SDS011;4837;50.890;4.724;2023-07-20T07:22:29;13.93;;;11.32;;
9597;SDS011;4837;50.890;4.724;2023-07-20T07:24:55;15.80;;;11.90;;
9597;SDS011;4837;50.890;4.724;2023-07-20T07:27:21;14.45;;;11.60;;
9597;SDS011;4837;50.890;4.724;2023-07-20T07:29:48;12.32;;;10.98;;
9597;SDS011;4837;50.890;4.724;2023-07-20T07:32:14;12.82;;;11.48;;
9597;SDS011;4837;50.890;4.724;2023-07-20T07:34:41;13.32;;;10.57;;
9597;SDS011;4837;50.890;4.724;2023-07-20T07:37:07;13.10;;;10.70;;
9597;SDS011;4837;50.890;4.724;2023-07-20T07:39:33;11.48;;;10.13;;
9597;SDS011;4837;50.890;4.724;2023-07-20T07:41:59;9.77;;;8.52;;
9597;SDS011;4837;50.890;4.724;2023-07-20T07:44:25;10.05;;;8.48;;
9597;SDS011;4837;50.890;4.724;2023-07-20T07:46:51;10.10;;;8.98;;
9597;SDS011;4837;50.890;4.724;2023-07-20T07:49:18;9.15;;;8.35;;
9597;SDS011;4837;50.890;4.724;2023-07-20T07:51:44;27.15;;;9.15;;
9597;SDS011;4837;50.890;4.724;2023-07-20T07:54:11;9.30;;;8.32;;
9597;SDS011;4837;50.890;4.724;2023-07-20T07:56:37;8.18;;;7.28;;
9597;SDS011;4837;50.890;4.724;2023-07-20T07:59:03;10.02;;;7.95;;
9597;SDS011;4837;50.890;4.724;2023-07-20T08:01:29;8.68;;;7.80;;
9597;SDS011;4837;50.890;4.724;2023-07-20T08:03:55;9.68;;;7.35;;
9597;SDS011;4837;50.890;4.724;2023-07-20T08:06:22;9.60;;;7.50;;
9597;SDS011;4837;50.890;4.724;2023-07-20T08:08:49;10.18;;;7.32;;
9597;SDS011;4837;50.890;4.724;2023-07-20T08:11:15;8.55;;;7.38;;
9597;SDS011;4837;50.890;4.724;2023-07-20T08:13:43;10.98;;;8.30;;
9597;SDS011;4837;50.890;4.724;2023-07-20T08:16:09;11.73;;;8.52;;
9597;SDS011;4837;50.890;4.724;2023-07-20T08:18:35;9.13;;;8.30;;
9597;SDS011;4837;50.890;4.724;2023-07-20T08:21:01;9.50;;;8.55;;
9597;SDS011;4837;50.890;4.724;2023-07-20T08:23:28;8.75;;;7.28;;
9597;SDS011;4837;50.890;4.724;2023-07-20T08:25:54;9.18;;;7.72;;
9597;SDS011;4837;50.890;4.724;2023-07-20T08:28:21;7.95;;;7.00;;
9597;SDS011;4837;50.890;4.724;2023-07-20T08:30:47;8.65;;;7.75;;
9597;SDS011;4837;50.890;4.724;2023-07-20T08:33:14;8.90;;;7.60;;
9597;SDS011;4837;50.890;4.724;2023-07-20T08:35:41;10.73;;;8.60;;
9597;SDS011;4837;50.890;4.724;2023-07-20T08:38:07;7.70;;;7.05;;
9597;SDS011;4837;50.890;4.724;2023-07-20T08:40:44;7.38;;;6.65;;
9597;SDS011;4837;50.890;4.724;2023-07-20T08:43:11;6.55;;;6.05;;
9597;SDS011;4837;50.890;4.724;2023-07-20T08:45:38;6.38;;;5.55;;
9597;SDS011;4837;50.890;4.724;2023-07-20T08:48:05;5.85;;;4.30;;
9597;SDS011;4837;50.890;4.724;2023-07-20T08:50:31;4.43;;;3.47;;
9597;SDS011;4837;50.890;4.724;2023-07-20T08:52:58;4.20;;;3.50;;
9597;SDS011;4837;50.890;4.724;2023-07-20T08:55:28;4.80;;;3.80;;
9597;SDS011;4837;50.890;4.724;2023-07-20T08:57:55;6.50;;;3.92;;
9597;SDS011;4837;50.890;4.724;2023-07-20T09:00:21;3.97;;;3.30;;
9597;SDS011;4837;50.890;4.724;2023-07-20T09:02:52;4.45;;;2.85;;
9597;SDS011;4837;50.890;4.724;2023-07-20T09:05:22;3.35;;;1.90;;
9597;SDS011;4837;50.890;4.724;2023-07-20T09:07:50;3.58;;;2.90;;
9597;SDS011;4837;50.890;4.724;2023-07-20T09:10:17;4.10;;;3.70;;
9597;SDS011;4837;50.890;4.724;2023-07-20T09:12:43;3.80;;;3.40;;
9597;SDS011;4837;50.890;4.724;2023-07-20T15:13:36;3.22;;;1.40;;
9597;SDS011;4837;50.890;4.724;2023-07-20T15:16:02;1.52;;;1.40;;
9597;SDS011;4837;50.890;4.724;2023-07-20T15:18:29;1.80;;;1.35;;
9597;SDS011;4837;50.890;4.724;2023-07-20T15:20:55;1.65;;;1.50;;
9597;SDS011;4837;50.890;4.724;2023-07-20T15:23:22;1.48;;;1.20;;
9597;SDS011;4837;50.890;4.724;2023-07-20T16:07:14;1.70;;;1.60;;
9597;SDS011;4837;50.890;4.724;2023-07-20T16:09:40;1.80;;;1.63;;
9597;SDS011;4837;50.890;4.724;2023-07-20T16:34:02;4.50;;;4.10;;
9597;SDS011;4837;50.890;4.724;2023-07-20T16:36:28;5.35;;;4.70;;
9597;SDS011;4837;50.890;4.724;2023-07-20T16:38:57;5.43;;;4.93;;
9597;SDS011;4837;50.890;4.724;2023-07-20T16:41:23;5.60;;;5.20;;
9597;SDS011;4837;50.890;4.724;2023-07-20T16:43:49;6.43;;;5.82;;
9597;SDS011;4837;50.890;4.724;2023-07-20T16:48:43;6.13;;;5.53;;
9597;SDS011;4837;50.890;4.724;2023-07-20T16:51:09;5.82;;;5.20;;
9597;SDS011;4837;50.890;4.724;2023-07-20T16:53:35;5.43;;;4.93;;
9597;SDS011;4837;50.890;4.724;2023-07-20T16:56:02;7.53;;;5.32;;
9597;SDS011;4837;50.890;4.724;2023-07-20T16:58:29;5.88;;;5.25;;
9597;SDS011;4837;50.890;4.724;2023-07-20T17:01:02;5.70;;;5.20;;
9597;SDS011;4837;50.890;4.724;2023-07-20T17:03:30;6.10;;;5.13;;
9597;SDS011;4837;50.890;4.724;2023-07-20T17:05:56;6.50;;;5.90;;
9597;SDS011;4837;50.890;4.724;2023-07-20T17:08:22;6.18;;;5.68;;
9597;SDS011;4837;50.890;4.724;2023-07-20T17:10:49;6.30;;;5.75;;
9597;SDS011;4837;50.890;4.724;2023-07-20T17:13:15;7.40;;;6.65;;
9597;SDS011;4837;50.890;4.724;2023-07-20T17:15:45;7.85;;;7.15;;
9597;SDS011;4837;50.890;4.724;2023-07-20T17:18:11;7.40;;;6.80;;
9597;SDS011;4837;50.890;4.724;2023-07-20T17:20:38;7.20;;;6.60;;
9597;SDS011;4837;50.890;4.724;2023-07-20T17:23:04;7.47;;;6.78;;
9597;SDS011;4837;50.890;4.724;2023-07-20T17:25:30;6.80;;;6.20;;
9597;SDS011;4837;50.890;4.724;2023-07-20T17:27:56;6.72;;;6.13;;
9597;SDS011;4837;50.890;4.724;2023-07-20T17:30:24;6.68;;;6.18;;
9597;SDS011;4837;50.890;4.724;2023-07-20T17:32:50;6.55;;;6.00;;
9597;SDS011;4837;50.890;4.724;2023-07-20T17:35:17;7.38;;;6.78;;
9597;SDS011;4837;50.890;4.724;2023-07-20T17:37:43;6.75;;;6.18;;
9597;SDS011;4837;50.890;4.724;2023-07-20T17:40:09;7.80;;;7.10;;
9597;SDS011;4837;50.890;4.724;2023-07-20T17:42:37;7.32;;;6.72;;
9597;SDS011;4837;50.890;4.724;2023-07-20T17:45:03;7.88;;;7.13;;
9597;SDS011;4837;50.890;4.724;2023-07-20T17:47:30;8.05;;;7.35;;
9597;SDS011;4837;50.890;4.724;2023-07-20T17:49:56;7.70;;;7.00;;
9597;SDS011;4837;50.890;4.724;2023-07-20T17:52:22;8.07;;;7.38;;
9597;SDS011;4837;50.890;4.724;2023-07-20T17:54:49;7.70;;;6.95;;
9597;SDS011;4837;50.890;4.724;2023-07-20T17:57:15;7.45;;;6.78;;
9597;SDS011;4837;50.890;4.724;2023-07-20T17:59:41;8.07;;;7.30;;
9597;SDS011;4837;50.890;4.724;2023-07-20T18:02:07;7.95;;;7.35;;
9597;SDS011;4837;50.890;4.724;2023-07-20T18:04:34;8.13;;;7.50;;
9597;SDS011;4837;50.890;4.724;2023-07-20T18:07:00;8.55;;;7.75;;
9597;SDS011;4837;50.890;4.724;2023-07-20T18:09:26;8.68;;;7.97;;
9597;SDS011;4837;50.890;4.724;2023-07-20T18:11:54;8.52;;;7.72;;
9597;SDS011;4837;50.890;4.724;2023-07-20T18:14:20;7.78;;;7.18;;
9597;SDS011;4837;50.890;4.724;2023-07-20T18:16:46;8.40;;;7.45;;
9597;SDS011;4837;50.890;4.724;2023-07-20T18:19:12;7.60;;;7.00;;
9597;SDS011;4837;50.890;4.724;2023-07-20T18:21:38;7.32;;;6.70;;
9597;SDS011;4837;50.890;4.724;2023-07-20T18:24:04;7.47;;;6.55;;
9597;SDS011;4837;50.890;4.724;2023-07-20T18:26:31;6.90;;;6.30;;
9597;SDS011;4837;50.890;4.724;2023-07-20T18:28:57;6.78;;;5.85;;
9597;SDS011;4837;50.890;4.724;2023-07-20T18:31:23;6.40;;;5.90;;
9597;SDS011;4837;50.890;4.724;2023-07-20T18:33:50;6.53;;;5.85;;
9597;SDS011;4837;50.890;4.724;2023-07-20T18:36:16;6.80;;;5.78;;
9597;SDS011;4837;50.890;4.724;2023-07-20T18:38:43;6.20;;;5.70;;
9597;SDS011;4837;50.890;4.724;2023-07-20T18:41:09;6.93;;;6.32;;
9597;SDS011;4837;50.890;4.724;2023-07-20T18:43:37;7.18;;;6.53;;
9597;SDS011;4837;50.890;4.724;2023-07-20T18:46:03;7.35;;;6.32;;
9597;SDS011;4837;50.890;4.724;2023-07-20T18:48:30;8.20;;;6.63;;
9597;SDS011;4837;50.890;4.724;2023-07-20T18:50:56;7.70;;;7.00;;
9597;SDS011;4837;50.890;4.724;2023-07-20T18:53:22;7.65;;;6.95;;
9597;SDS011;4837;50.890;4.724;2023-07-20T18:55:48;7.20;;;6.50;;
9597;SDS011;4837;50.890;4.724;2023-07-20T18:58:14;7.95;;;7.25;;
9597;SDS011;4837;50.890;4.724;2023-07-20T19:00:40;7.82;;;6.65;;
9597;SDS011;4837;50.890;4.724;2023-07-20T19:03:07;7.65;;;7.03;;
9597;SDS011;4837;50.890;4.724;2023-07-20T19:05:33;8.02;;;7.32;;
9597;SDS011;4837;50.890;4.724;2023-07-20T19:08:05;7.78;;;7.05;;
9597;SDS011;4837;50.890;4.724;2023-07-20T19:10:32;8.43;;;7.57;;
9597;SDS011;4837;50.890;4.724;2023-07-20T19:12:58;7.70;;;7.10;;
9597;SDS011;4837;50.890;4.724;2023-07-20T19:15:24;8.90;;;7.97;;
9597;SDS011;4837;50.890;4.724;2023-07-20T19:17:50;8.75;;;7.95;;
9597;SDS011;4837;50.890;4.724;2023-07-20T19:20:16;8.63;;;7.93;;
9597;SDS011;4837;50.890;4.724;2023-07-20T19:22:43;9.18;;;8.27;;
9597;SDS011;4837;50.890;4.724;2023-07-20T19:25:09;8.68;;;7.95;;
9597;SDS011;4837;50.890;4.724;2023-07-20T19:27:41;8.93;;;7.68;;
9597;SDS011;4837;50.890;4.724;2023-07-20T19:30:07;8.63;;;7.93;;
9597;SDS011;4837;50.890;4.724;2023-07-20T19:32:33;9.18;;;8.40;;
9597;SDS011;4837;50.890;4.724;2023-07-20T19:35:00;8.65;;;7.95;;
9597;SDS011;4837;50.890;4.724;2023-07-20T19:37:27;8.63;;;7.75;;
9597;SDS011;4837;50.890;4.724;2023-07-20T19:39:54;8.82;;;8.00;;
9597;SDS011;4837;50.890;4.724;2023-07-20T19:42:21;8.73;;;7.97;;
9597;SDS011;4837;50.890;4.724;2023-07-20T19:44:47;8.52;;;7.78;;
9597;SDS011;4837;50.890;4.724;2023-07-20T19:47:14;8.43;;;7.63;;
9597;SDS011;4837;50.890;4.724;2023-07-20T19:49:40;9.60;;;8.52;;
9597;SDS011;4837;50.890;4.724;2023-07-20T19:52:06;9.05;;;8.18;;
9597;SDS011;4837;50.890;4.724;2023-07-20T19:54:34;8.95;;;8.05;;
9597;SDS011;4837;50.890;4.724;2023-07-20T19:57:00;9.60;;;8.65;;
9597;SDS011;4837;50.890;4.724;2023-07-20T19:59:26;9.75;;;8.85;;
9597;SDS011;4837;50.890;4.724;2023-07-20T20:01:52;10.10;;;9.30;;
9597;SDS011;4837;50.890;4.724;2023-07-20T20:04:18;10.95;;;9.75;;
9597;SDS011;4837;50.890;4.724;2023-07-20T20:06:45;10.25;;;9.25;;
9597;SDS011;4837;50.890;4.724;2023-07-20T20:09:14;10.80;;;9.10;;
9597;SDS011;4837;50.890;4.724;2023-07-20T20:11:42;10.30;;;9.40;;
9597;SDS011;4837;50.890;4.724;2023-07-20T20:14:08;10.30;;;9.30;;
9597;SDS011;4837;50.890;4.724;2023-07-20T20:16:34;10.40;;;9.45;;
9597;SDS011;4837;50.890;4.724;2023-07-20T20:19:01;11.40;;;10.20;;
9597;SDS011;4837;50.890;4.724;2023-07-20T20:21:27;10.75;;;9.57;;
9597;SDS011;4837;50.890;4.724;2023-07-20T20:23:53;10.43;;;9.48;;
9597;SDS011;4837;50.890;4.724;2023-07-20T20:26:19;10.95;;;9.98;;
9597;SDS011;4837;50.890;4.724;2023-07-20T20:28:45;10.90;;;9.80;;
9597;SDS011;4837;50.890;4.724;2023-07-20T20:31:11;10.23;;;9.32;;
9597;SDS011;4837;50.890;4.724;2023-07-20T20:33:38;10.80;;;9.70;;
9597;SDS011;4837;50.890;4.724;2023-07-20T20:36:06;11.18;;;9.98;;
9597;SDS011;4837;50.890;4.724;2023-07-20T20:38:32;12.35;;;11.15;;
9597;SDS011;4837;50.890;4.724;2023-07-20T20:40:59;11.23;;;10.13;;
9597;SDS011;4837;50.890;4.724;2023-07-20T20:43:27;11.25;;;10.15;;
9597;SDS011;4837;50.890;4.724;2023-07-20T20:45:59;13.27;;;10.82;;
9597;SDS011;4837;50.890;4.724;2023-07-20T20:48:27;12.23;;;10.95;;
9597;SDS011;4837;50.890;4.724;2023-07-20T20:50:53;10.93;;;9.93;;
9597;SDS011;4837;50.890;4.724;2023-07-20T20:53:20;11.18;;;10.07;;
9597;SDS011;4837;50.890;4.724;2023-07-20T20:55:46;11.90;;;10.68;;
9597;SDS011;4837;50.890;4.724;2023-07-20T20:58:12;12.38;;;11.13;;
9597;SDS011;4837;50.890;4.724;2023-07-20T21:00:38;12.45;;;11.18;;
9597;SDS011;4837;50.890;4.724;2023-07-20T21:03:05;12.30;;;11.20;;
9597;SDS011;4837;50.890;4.724;2023-07-20T21:05:34;14.02;;;12.65;;
9597;SDS011;4837;50.890;4.724;2023-07-20T21:08:02;12.98;;;11.43;;
9597;SDS011;4837;50.890;4.724;2023-07-20T21:10:29;13.07;;;11.82;;
9597;SDS011;4837;50.890;4.724;2023-07-20T21:12:55;13.45;;;12.15;;
9597;SDS011;4837;50.890;4.724;2023-07-20T21:15:22;14.15;;;12.80;;
9597;SDS011;4837;50.890;4.724;2023-07-20T21:17:49;13.90;;;12.57;;
9597;SDS011;4837;50.890;4.724;2023-07-20T21:20:15;12.85;;;11.65;;
9597;SDS011;4837;50.890;4.724;2023-07-20T21:22:41;11.68;;;10.52;;
9597;SDS011;4837;50.890;4.724;2023-07-20T21:25:08;12.10;;;10.75;;
9597;SDS011;4837;50.890;4.724;2023-07-20T21:27:34;13.10;;;11.77;;
9597;SDS011;4837;50.890;4.724;2023-07-20T21:30:01;14.00;;;12.73;;
9597;SDS011;4837;50.890;4.724;2023-07-20T21:32:28;14.00;;;12.63;;
9597;SDS011;4837;50.890;4.724;2023-07-20T21:35:01;13.27;;;11.98;;
9597;SDS011;4837;50.890;4.724;2023-07-20T21:37:31;13.52;;;12.23;;
9597;SDS011;4837;50.890;4.724;2023-07-20T21:39:57;13.10;;;11.80;;
9597;SDS011;4837;50.890;4.724;2023-07-20T21:42:24;13.75;;;11.82;;
9597;SDS011;4837;50.890;4.724;2023-07-20T21:44:51;15.07;;;11.70;;
9597;SDS011;4837;50.890;4.724;2023-07-20T21:47:17;14.35;;;12.80;;
9597;SDS011;4837;50.890;4.724;2023-07-20T21:49:44;13.43;;;12.13;;
9597;SDS011;4837;50.890;4.724;2023-07-20T21:52:10;13.60;;;12.32;;
9597;SDS011;4837;50.890;4.724;2023-07-20T21:54:36;14.05;;;12.65;;
9597;SDS011;4837;50.890;4.724;2023-07-20T21:57:02;15.70;;;14.25;;
9597;SDS011;4837;50.890;4.724;2023-07-20T21:59:28;13.88;;;12.57;;
9597;SDS011;4837;50.890;4.724;2023-07-20T22:01:55;13.30;;;12.10;;
9597;SDS011;4837;50.890;4.724;2023-07-20T22:04:21;13.18;;;11.98;;
9597;SDS011;4837;50.890;4.724;2023-07-20T22:06:47;15.07;;;13.68;;
9597;SDS011;4837;50.890;4.724;2023-07-20T22:09:13;15.40;;;13.90;;
9597;SDS011;4837;50.890;4.724;2023-07-20T22:11:40;16.30;;;14.70;;
9597;SDS011;4837;50.890;4.724;2023-07-20T22:14:06;14.57;;;13.13;;
9597;SDS011;4837;50.890;4.724;2023-07-20T22:16:32;14.60;;;13.20;;